sensor_id;sensor_type;location;lat;lon;timestamp;P1;durP1;ratioP1;P2;durP2;ratioP2
64894;SDS011;51588;53.702;10.208;2023-03-31T00:00:56;3.43;;;1.70;;
64894;SDS011;51588;53.702;10.208;2023-03-31T00:03:24;5.17;;;1.80;;
64894;SDS011;51588;53.702;10.208;2023-03-31T00:05:53;3.97;;;1.70;;
64894;SDS011;51588;53.702;10.208;2023-03-31T00:08:22;3.97;;;1.93;;
64894;SDS011;51588;53.702;10.208;2023-03-31T00:10:50;3.63;;;1.80;;
64894;SDS011;51588;53.702;10.208;2023-03-31T00:13:17;3.97;;;2.13;;
64894;SDS011;51588;53.702;10.208;2023-03-31T00:15:43;4.50;;;1.70;;
64894;SDS011;51588;53.702;10.208;2023-03-31T00:18:10;4.10;;;1.60;;
64894;SDS011;51588;53.702;10.208;2023-03-31T00:20:36;4.20;;;1.63;;
64894;SDS011;51588;53.702;10.208;2023-03-31T00:23:03;3.77;;;1.67;;
64894;SDS011;51588;53.702;10.208;2023-03-31T00:25:30;4.70;;;1.70;;
64894;SDS011;51588;53.702;10.208;2023-03-31T00:27:58;4.13;;;1.80;;
64894;SDS011;51588;53.702;10.208;2023-03-31T00:30:25;3.20;;;1.53;;
64894;SDS011;51588;53.702;10.208;2023-03-31T00:32:52;2.60;;;1.80;;
64894;SDS011;51588;53.702;10.208;2023-03-31T00:35:18;3.20;;;1.93;;
64894;SDS011;51588;53.702;10.208;2023-03-31T00:37:45;3.23;;;1.67;;
64894;SDS011;51588;53.702;10.208;2023-03-31T00:40:12;3.00;;;1.80;;
64894;SDS011;51588;53.702;10.208;2023-03-31T00:42:39;4.70;;;1.70;;
64894;SDS011;51588;53.702;10.208;2023-03-31T00:45:19;3.30;;;1.90;;
64894;SDS011;51588;53.702;10.208;2023-03-31T00:47:49;5.80;;;2.03;;
64894;SDS011;51588;53.702;10.208;2023-03-31T00:50:19;3.40;;;1.87;;
64894;SDS011;51588;53.702;10.208;2023-03-31T00:52:48;5.90;;;2.07;;
64894;SDS011;51588;53.702;10.208;2023-03-31T00:55:22;4.27;;;1.60;;
64894;SDS011;51588;53.702;10.208;2023-03-31T00:57:50;3.47;;;1.93;;
64894;SDS011;51588;53.702;10.208;2023-03-31T01:00:20;2.73;;;1.70;;
64894;SDS011;51588;53.702;10.208;2023-03-31T01:02:48;5.27;;;2.07;;
64894;SDS011;51588;53.702;10.208;2023-03-31T01:05:20;3.87;;;1.87;;
64894;SDS011;51588;53.702;10.208;2023-03-31T01:07:50;5.57;;;1.90;;
64894;SDS011;51588;53.702;10.208;2023-03-31T01:10:19;3.77;;;2.03;;
64894;SDS011;51588;53.702;10.208;2023-03-31T01:12:47;4.20;;;1.60;;
64894;SDS011;51588;53.702;10.208;2023-03-31T01:15:17;3.53;;;1.87;;
64894;SDS011;51588;53.702;10.208;2023-03-31T01:17:46;4.17;;;2.20;;
64894;SDS011;51588;53.702;10.208;2023-03-31T01:20:16;5.10;;;1.90;;
64894;SDS011;51588;53.702;10.208;2023-03-31T01:23:00;3.53;;;1.80;;
64894;SDS011;51588;53.702;10.208;2023-03-31T01:28:46;4.17;;;1.70;;
64894;SDS011;51588;53.702;10.208;2023-03-31T01:31:44;4.07;;;1.77;;
64894;SDS011;51588;53.702;10.208;2023-03-31T01:40:42;4.40;;;2.13;;
64894;SDS011;51588;53.702;10.208;2023-03-31T01:43:23;4.27;;;1.97;;
64894;SDS011;51588;53.702;10.208;2023-03-31T01:45:59;5.53;;;1.93;;
64894;SDS011;51588;53.702;10.208;2023-03-31T01:48:36;4.00;;;1.93;;
64894;SDS011;51588;53.702;10.208;2023-03-31T01:51:11;4.90;;;2.10;;
64894;SDS011;51588;53.702;10.208;2023-03-31T01:53:44;3.67;;;1.63;;
64894;SDS011;51588;53.702;10.208;2023-03-31T01:56:18;4.07;;;1.70;;
64894;SDS011;51588;53.702;10.208;2023-03-31T01:58:51;3.93;;;1.97;;
64894;SDS011;51588;53.702;10.208;2023-03-31T02:01:22;3.57;;;1.90;;
64894;SDS011;51588;53.702;10.208;2023-03-31T02:03:54;4.67;;;1.87;;
64894;SDS011;51588;53.702;10.208;2023-03-31T02:06:24;2.10;;;1.50;;
64894;SDS011;51588;53.702;10.208;2023-03-31T02:08:56;8.40;;;1.97;;
64894;SDS011;51588;53.702;10.208;2023-03-31T02:11:29;5.00;;;2.10;;
64894;SDS011;51588;53.702;10.208;2023-03-31T02:13:58;3.53;;;1.77;;
64894;SDS011;51588;53.702;10.208;2023-03-31T02:16:28;4.70;;;1.90;;
64894;SDS011;51588;53.702;10.208;2023-03-31T02:18:58;3.63;;;1.70;;
64894;SDS011;51588;53.702;10.208;2023-03-31T02:21:29;3.03;;;1.87;;
64894;SDS011;51588;53.702;10.208;2023-03-31T02:23:58;2.87;;;1.73;;
64894;SDS011;51588;53.702;10.208;2023-03-31T02:26:29;6.77;;;1.97;;
64894;SDS011;51588;53.702;10.208;2023-03-31T02:29:01;4.83;;;2.00;;
64894;SDS011;51588;53.702;10.208;2023-03-31T02:31:30;2.77;;;1.40;;
64894;SDS011;51588;53.702;10.208;2023-03-31T02:34:03;4.87;;;1.90;;
64894;SDS011;51588;53.702;10.208;2023-03-31T02:36:30;6.03;;;1.80;;
64894;SDS011;51588;53.702;10.208;2023-03-31T02:38:58;6.90;;;1.97;;
64894;SDS011;51588;53.702;10.208;2023-03-31T02:41:30;4.33;;;1.93;;
64894;SDS011;51588;53.702;10.208;2023-03-31T02:43:57;3.57;;;1.97;;
64894;SDS011;51588;53.702;10.208;2023-03-31T02:46:24;4.27;;;1.60;;
64894;SDS011;51588;53.702;10.208;2023-03-31T02:48:53;3.20;;;1.90;;
64894;SDS011;51588;53.702;10.208;2023-03-31T02:54:32;4.00;;;1.50;;
64894;SDS011;51588;53.702;10.208;2023-03-31T02:57:24;3.00;;;1.63;;
64894;SDS011;51588;53.702;10.208;2023-03-31T03:00:06;3.40;;;1.83;;
64894;SDS011;51588;53.702;10.208;2023-03-31T03:02:45;3.83;;;1.97;;
64894;SDS011;51588;53.702;10.208;2023-03-31T03:05:24;3.73;;;1.67;;
64894;SDS011;51588;53.702;10.208;2023-03-31T03:08:02;3.57;;;1.80;;
64894;SDS011;51588;53.702;10.208;2023-03-31T03:10:39;3.47;;;1.60;;
64894;SDS011;51588;53.702;10.208;2023-03-31T03:13:15;5.70;;;2.20;;
64894;SDS011;51588;53.702;10.208;2023-03-31T03:15:46;4.30;;;1.83;;
64894;SDS011;51588;53.702;10.208;2023-03-31T03:18:16;5.70;;;2.30;;
64894;SDS011;51588;53.702;10.208;2023-03-31T03:20:43;5.57;;;2.07;;
64894;SDS011;51588;53.702;10.208;2023-03-31T03:23:13;5.03;;;2.27;;
64894;SDS011;51588;53.702;10.208;2023-03-31T03:25:39;5.50;;;1.97;;
64894;SDS011;51588;53.702;10.208;2023-03-31T03:28:06;3.23;;;1.90;;
64894;SDS011;51588;53.702;10.208;2023-03-31T03:30:34;4.20;;;2.30;;
64894;SDS011;51588;53.702;10.208;2023-03-31T03:33:01;5.33;;;1.90;;
64894;SDS011;51588;53.702;10.208;2023-03-31T03:35:30;3.80;;;2.10;;
64894;SDS011;51588;53.702;10.208;2023-03-31T03:37:57;3.60;;;1.63;;
64894;SDS011;51588;53.702;10.208;2023-03-31T03:40:23;3.33;;;1.70;;
64894;SDS011;51588;53.702;10.208;2023-03-31T03:42:50;4.53;;;1.67;;
64894;SDS011;51588;53.702;10.208;2023-03-31T03:45:16;6.97;;;2.10;;
64894;SDS011;51588;53.702;10.208;2023-03-31T03:47:44;3.43;;;1.70;;
64894;SDS011;51588;53.702;10.208;2023-03-31T03:50:11;4.23;;;1.90;;
64894;SDS011;51588;53.702;10.208;2023-03-31T03:52:38;4.90;;;2.00;;
64894;SDS011;51588;53.702;10.208;2023-03-31T03:55:05;6.80;;;2.40;;
64894;SDS011;51588;53.702;10.208;2023-03-31T03:57:32;3.70;;;1.80;;
64894;SDS011;51588;53.702;10.208;2023-03-31T03:59:58;3.10;;;1.63;;
64894;SDS011;51588;53.702;10.208;2023-03-31T04:02:25;3.47;;;1.70;;
64894;SDS011;51588;53.702;10.208;2023-03-31T04:04:53;5.63;;;1.93;;
64894;SDS011;51588;53.702;10.208;2023-03-31T04:07:20;4.00;;;1.90;;
64894;SDS011;51588;53.702;10.208;2023-03-31T04:09:47;3.60;;;2.20;;
64894;SDS011;51588;53.702;10.208;2023-03-31T04:12:13;3.77;;;2.07;;
64894;SDS011;51588;53.702;10.208;2023-03-31T04:14:40;3.93;;;2.00;;
64894;SDS011;51588;53.702;10.208;2023-03-31T04:17:07;3.27;;;2.07;;
64894;SDS011;51588;53.702;10.208;2023-03-31T04:19:34;4.33;;;2.00;;
64894;SDS011;51588;53.702;10.208;2023-03-31T04:22:03;5.37;;;2.20;;
64894;SDS011;51588;53.702;10.208;2023-03-31T04:24:30;4.60;;;1.80;;
64894;SDS011;51588;53.702;10.208;2023-03-31T04:26:57;4.77;;;2.30;;
64894;SDS011;51588;53.702;10.208;2023-03-31T04:29:26;3.63;;;1.80;;
64894;SDS011;51588;53.702;10.208;2023-03-31T04:31:53;3.10;;;1.53;;
64894;SDS011;51588;53.702;10.208;2023-03-31T04:34:22;3.10;;;2.17;;
64894;SDS011;51588;53.702;10.208;2023-03-31T04:36:58;4.67;;;2.57;;
64894;SDS011;51588;53.702;10.208;2023-03-31T04:39:28;3.67;;;2.03;;
64894;SDS011;51588;53.702;10.208;2023-03-31T04:41:56;2.87;;;2.10;;
64894;SDS011;51588;53.702;10.208;2023-03-31T04:44:22;3.40;;;2.10;;
64894;SDS011;51588;53.702;10.208;2023-03-31T04:46:50;3.73;;;2.00;;
64894;SDS011;51588;53.702;10.208;2023-03-31T04:49:16;4.20;;;1.60;;
64894;SDS011;51588;53.702;10.208;2023-03-31T04:51:43;4.40;;;1.90;;
64894;SDS011;51588;53.702;10.208;2023-03-31T04:54:10;3.40;;;1.90;;
64894;SDS011;51588;53.702;10.208;2023-03-31T04:56:38;4.10;;;1.80;;
64894;SDS011;51588;53.702;10.208;2023-03-31T04:59:04;3.20;;;1.90;;
64894;SDS011;51588;53.702;10.208;2023-03-31T05:01:32;4.10;;;2.27;;
64894;SDS011;51588;53.702;10.208;2023-03-31T05:04:00;4.40;;;2.10;;
64894;SDS011;51588;53.702;10.208;2023-03-31T05:06:27;4.90;;;2.30;;
64894;SDS011;51588;53.702;10.208;2023-03-31T05:08:54;3.63;;;1.37;;
64894;SDS011;51588;53.702;10.208;2023-03-31T05:11:21;3.73;;;1.80;;
64894;SDS011;51588;53.702;10.208;2023-03-31T05:13:49;3.73;;;1.90;;
64894;SDS011;51588;53.702;10.208;2023-03-31T05:16:15;3.57;;;1.90;;
64894;SDS011;51588;53.702;10.208;2023-03-31T05:18:42;4.90;;;1.60;;
64894;SDS011;51588;53.702;10.208;2023-03-31T05:21:11;4.70;;;1.80;;
64894;SDS011;51588;53.702;10.208;2023-03-31T05:23:38;13.13;;;2.30;;
64894;SDS011;51588;53.702;10.208;2023-03-31T05:26:06;6.67;;;2.40;;
64894;SDS011;51588;53.702;10.208;2023-03-31T05:28:33;5.23;;;2.80;;
64894;SDS011;51588;53.702;10.208;2023-03-31T05:31:02;10.40;;;3.60;;
64894;SDS011;51588;53.702;10.208;2023-03-31T05:33:29;9.47;;;3.70;;
64894;SDS011;51588;53.702;10.208;2023-03-31T05:35:56;11.70;;;4.20;;
64894;SDS011;51588;53.702;10.208;2023-03-31T05:38:24;7.87;;;4.00;;
64894;SDS011;51588;53.702;10.208;2023-03-31T05:40:53;8.93;;;3.43;;
64894;SDS011;51588;53.702;10.208;2023-03-31T05:43:20;7.40;;;3.10;;
64894;SDS011;51588;53.702;10.208;2023-03-31T05:45:46;7.23;;;3.60;;
64894;SDS011;51588;53.702;10.208;2023-03-31T05:48:15;7.23;;;3.10;;
64894;SDS011;51588;53.702;10.208;2023-03-31T05:50:41;6.07;;;2.60;;
64894;SDS011;51588;53.702;10.208;2023-03-31T05:53:08;6.90;;;2.97;;
64894;SDS011;51588;53.702;10.208;2023-03-31T05:55:35;8.67;;;2.70;;
64894;SDS011;51588;53.702;10.208;2023-03-31T05:58:02;6.37;;;2.67;;
64894;SDS011;51588;53.702;10.208;2023-03-31T06:00:29;6.13;;;2.50;;
64894;SDS011;51588;53.702;10.208;2023-03-31T06:02:56;13.93;;;2.63;;
64894;SDS011;51588;53.702;10.208;2023-03-31T06:05:24;5.53;;;2.63;;
64894;SDS011;51588;53.702;10.208;2023-03-31T06:07:51;7.00;;;2.80;;
64894;SDS011;51588;53.702;10.208;2023-03-31T06:10:18;6.87;;;2.93;;
64894;SDS011;51588;53.702;10.208;2023-03-31T06:12:45;10.20;;;3.10;;
64894;SDS011;51588;53.702;10.208;2023-03-31T06:15:12;8.03;;;2.77;;
64894;SDS011;51588;53.702;10.208;2023-03-31T06:17:40;9.00;;;2.83;;
64894;SDS011;51588;53.702;10.208;2023-03-31T06:20:06;4.80;;;2.50;;
64894;SDS011;51588;53.702;10.208;2023-03-31T06:22:35;8.07;;;2.87;;
64894;SDS011;51588;53.702;10.208;2023-03-31T06:25:02;7.57;;;2.93;;
64894;SDS011;51588;53.702;10.208;2023-03-31T06:27:29;7.30;;;2.40;;
64894;SDS011;51588;53.702;10.208;2023-03-31T06:29:55;6.23;;;2.47;;
64894;SDS011;51588;53.702;10.208;2023-03-31T06:32:22;10.07;;;3.27;;
64894;SDS011;51588;53.702;10.208;2023-03-31T06:34:48;7.97;;;3.43;;
64894;SDS011;51588;53.702;10.208;2023-03-31T06:37:15;7.90;;;3.40;;
64894;SDS011;51588;53.702;10.208;2023-03-31T06:39:43;7.83;;;3.10;;
64894;SDS011;51588;53.702;10.208;2023-03-31T06:42:10;7.70;;;3.83;;
64894;SDS011;51588;53.702;10.208;2023-03-31T06:44:36;5.53;;;3.50;;
64894;SDS011;51588;53.702;10.208;2023-03-31T06:47:03;8.43;;;3.10;;
64894;SDS011;51588;53.702;10.208;2023-03-31T06:49:30;9.40;;;2.93;;
64894;SDS011;51588;53.702;10.208;2023-03-31T06:51:56;6.13;;;3.30;;
64894;SDS011;51588;53.702;10.208;2023-03-31T06:54:23;7.07;;;2.87;;
64894;SDS011;51588;53.702;10.208;2023-03-31T06:56:51;6.50;;;2.67;;
64894;SDS011;51588;53.702;10.208;2023-03-31T06:59:18;8.90;;;3.00;;
64894;SDS011;51588;53.702;10.208;2023-03-31T07:01:44;7.63;;;2.97;;
64894;SDS011;51588;53.702;10.208;2023-03-31T07:04:12;13.63;;;3.40;;
64894;SDS011;51588;53.702;10.208;2023-03-31T07:06:39;5.13;;;2.50;;
64894;SDS011;51588;53.702;10.208;2023-03-31T07:09:06;6.53;;;3.10;;
64894;SDS011;51588;53.702;10.208;2023-03-31T07:11:32;7.63;;;2.87;;
64894;SDS011;51588;53.702;10.208;2023-03-31T07:14:00;8.80;;;2.60;;
64894;SDS011;51588;53.702;10.208;2023-03-31T07:16:27;6.90;;;2.87;;
64894;SDS011;51588;53.702;10.208;2023-03-31T07:18:55;4.70;;;2.70;;
64894;SDS011;51588;53.702;10.208;2023-03-31T07:21:23;8.93;;;3.00;;
64894;SDS011;51588;53.702;10.208;2023-03-31T07:23:50;7.33;;;2.50;;
64894;SDS011;51588;53.702;10.208;2023-03-31T07:26:17;6.70;;;2.83;;
64894;SDS011;51588;53.702;10.208;2023-03-31T07:28:44;4.37;;;2.40;;
64894;SDS011;51588;53.702;10.208;2023-03-31T07:31:12;9.00;;;2.73;;
64894;SDS011;51588;53.702;10.208;2023-03-31T07:33:39;13.90;;;3.83;;
64894;SDS011;51588;53.702;10.208;2023-03-31T07:36:06;15.40;;;4.40;;
64894;SDS011;51588;53.702;10.208;2023-03-31T07:38:34;17.60;;;3.97;;
64894;SDS011;51588;53.702;10.208;2023-03-31T07:41:00;15.53;;;4.60;;
64894;SDS011;51588;53.702;10.208;2023-03-31T07:43:27;16.77;;;4.83;;
64894;SDS011;51588;53.702;10.208;2023-03-31T07:45:54;7.20;;;4.03;;
64894;SDS011;51588;53.702;10.208;2023-03-31T07:48:22;14.13;;;4.37;;
64894;SDS011;51588;53.702;10.208;2023-03-31T07:50:48;11.47;;;4.60;;
64894;SDS011;51588;53.702;10.208;2023-03-31T07:53:16;12.63;;;4.30;;
64894;SDS011;51588;53.702;10.208;2023-03-31T07:55:42;12.23;;;4.27;;
64894;SDS011;51588;53.702;10.208;2023-03-31T07:58:09;9.63;;;4.87;;
64894;SDS011;51588;53.702;10.208;2023-03-31T08:00:36;11.53;;;5.33;;
64894;SDS011;51588;53.702;10.208;2023-03-31T08:03:03;15.17;;;5.03;;
64894;SDS011;51588;53.702;10.208;2023-03-31T08:05:32;12.67;;;4.70;;
64894;SDS011;51588;53.702;10.208;2023-03-31T08:07:59;9.23;;;4.30;;
64894;SDS011;51588;53.702;10.208;2023-03-31T08:10:26;12.17;;;5.00;;
64894;SDS011;51588;53.702;10.208;2023-03-31T08:12:53;10.47;;;4.70;;
64894;SDS011;51588;53.702;10.208;2023-03-31T08:15:20;13.20;;;4.70;;
64894;SDS011;51588;53.702;10.208;2023-03-31T08:17:47;9.00;;;4.50;;
64894;SDS011;51588;53.702;10.208;2023-03-31T08:20:13;7.30;;;4.57;;
64894;SDS011;51588;53.702;10.208;2023-03-31T08:22:41;11.20;;;4.77;;
64894;SDS011;51588;53.702;10.208;2023-03-31T08:25:08;11.40;;;5.20;;
64894;SDS011;51588;53.702;10.208;2023-03-31T08:27:36;10.93;;;4.70;;
64894;SDS011;51588;53.702;10.208;2023-03-31T08:30:04;8.40;;;4.00;;
64894;SDS011;51588;53.702;10.208;2023-03-31T08:32:32;9.60;;;3.70;;
64894;SDS011;51588;53.702;10.208;2023-03-31T08:34:59;8.20;;;3.60;;
64894;SDS011;51588;53.702;10.208;2023-03-31T08:37:26;8.50;;;3.37;;
64894;SDS011;51588;53.702;10.208;2023-03-31T08:39:55;5.87;;;2.83;;
64894;SDS011;51588;53.702;10.208;2023-03-31T08:42:24;5.83;;;2.80;;
64894;SDS011;51588;53.702;10.208;2023-03-31T08:45:01;6.70;;;3.33;;
64894;SDS011;51588;53.702;10.208;2023-03-31T08:47:31;5.77;;;2.70;;
64894;SDS011;51588;53.702;10.208;2023-03-31T08:50:02;5.93;;;2.53;;
64894;SDS011;51588;53.702;10.208;2023-03-31T08:52:32;5.17;;;2.33;;
64894;SDS011;51588;53.702;10.208;2023-03-31T08:55:06;7.33;;;2.37;;
64894;SDS011;51588;53.702;10.208;2023-03-31T08:57:37;4.23;;;2.57;;
64894;SDS011;51588;53.702;10.208;2023-03-31T09:00:12;6.43;;;2.30;;
64894;SDS011;51588;53.702;10.208;2023-03-31T09:02:42;5.00;;;2.37;;
64894;SDS011;51588;53.702;10.208;2023-03-31T09:05:20;4.23;;;2.20;;
64894;SDS011;51588;53.702;10.208;2023-03-31T09:08:03;5.27;;;2.30;;
64894;SDS011;51588;53.702;10.208;2023-03-31T09:10:42;5.10;;;2.20;;
64894;SDS011;51588;53.702;10.208;2023-03-31T09:13:21;4.90;;;2.17;;
64894;SDS011;51588;53.702;10.208;2023-03-31T09:16:03;5.20;;;2.00;;
64894;SDS011;51588;53.702;10.208;2023-03-31T09:18:38;6.97;;;2.50;;
64894;SDS011;51588;53.702;10.208;2023-03-31T09:21:11;8.93;;;2.27;;
64894;SDS011;51588;53.702;10.208;2023-03-31T09:23:43;4.77;;;2.27;;
64894;SDS011;51588;53.702;10.208;2023-03-31T09:26:19;3.63;;;2.20;;
64894;SDS011;51588;53.702;10.208;2023-03-31T09:28:50;3.40;;;1.77;;
64894;SDS011;51588;53.702;10.208;2023-03-31T09:31:19;5.63;;;2.13;;
64894;SDS011;51588;53.702;10.208;2023-03-31T09:33:47;8.50;;;1.80;;
64894;SDS011;51588;53.702;10.208;2023-03-31T09:36:18;5.80;;;2.23;;
64894;SDS011;51588;53.702;10.208;2023-03-31T09:38:48;3.27;;;1.73;;
64894;SDS011;51588;53.702;10.208;2023-03-31T09:41:15;4.00;;;1.90;;
64894;SDS011;51588;53.702;10.208;2023-03-31T09:43:45;7.97;;;2.00;;
64894;SDS011;51588;53.702;10.208;2023-03-31T09:46:18;6.00;;;2.10;;
64894;SDS011;51588;53.702;10.208;2023-03-31T09:48:52;7.50;;;2.57;;
64894;SDS011;51588;53.702;10.208;2023-03-31T09:51:25;5.83;;;3.00;;
64894;SDS011;51588;53.702;10.208;2023-03-31T09:53:55;8.70;;;2.37;;
64894;SDS011;51588;53.702;10.208;2023-03-31T09:56:33;6.40;;;2.20;;
64894;SDS011;51588;53.702;10.208;2023-03-31T09:59:12;6.43;;;2.30;;
64894;SDS011;51588;53.702;10.208;2023-03-31T10:01:40;3.87;;;2.10;;
64894;SDS011;51588;53.702;10.208;2023-03-31T10:04:11;6.03;;;2.50;;
64894;SDS011;51588;53.702;10.208;2023-03-31T10:06:44;7.13;;;2.10;;
64894;SDS011;51588;53.702;10.208;2023-03-31T10:09:11;23.33;;;4.47;;
64894;SDS011;51588;53.702;10.208;2023-03-31T10:11:40;47.87;;;8.60;;
64894;SDS011;51588;53.702;10.208;2023-03-31T10:14:17;53.57;;;10.63;;
64894;SDS011;51588;53.702;10.208;2023-03-31T10:16:52;31.63;;;7.43;;
64894;SDS011;51588;53.702;10.208;2023-03-31T10:19:20;24.93;;;5.80;;
64894;SDS011;51588;53.702;10.208;2023-03-31T10:21:54;24.70;;;5.80;;
64894;SDS011;51588;53.702;10.208;2023-03-31T10:24:22;19.40;;;5.10;;
64894;SDS011;51588;53.702;10.208;2023-03-31T10:26:51;15.20;;;4.40;;
64894;SDS011;51588;53.702;10.208;2023-03-31T10:29:28;16.43;;;3.90;;
64894;SDS011;51588;53.702;10.208;2023-03-31T10:32:01;10.33;;;3.57;;
64894;SDS011;51588;53.702;10.208;2023-03-31T10:34:30;14.23;;;3.90;;
64894;SDS011;51588;53.702;10.208;2023-03-31T10:36:57;11.00;;;3.40;;
64894;SDS011;51588;53.702;10.208;2023-03-31T10:39:27;6.67;;;2.67;;
64894;SDS011;51588;53.702;10.208;2023-03-31T10:41:57;7.97;;;2.47;;
64894;SDS011;51588;53.702;10.208;2023-03-31T10:44:31;5.07;;;2.13;;
64894;SDS011;51588;53.702;10.208;2023-03-31T10:47:05;5.97;;;2.50;;
64894;SDS011;51588;53.702;10.208;2023-03-31T10:49:42;7.43;;;2.30;;
64894;SDS011;51588;53.702;10.208;2023-03-31T10:52:14;6.10;;;2.13;;
64894;SDS011;51588;53.702;10.208;2023-03-31T10:54:50;4.70;;;2.13;;
64894;SDS011;51588;53.702;10.208;2023-03-31T10:57:23;6.83;;;2.13;;
64894;SDS011;51588;53.702;10.208;2023-03-31T11:00:02;7.50;;;2.20;;
64894;SDS011;51588;53.702;10.208;2023-03-31T11:02:48;4.53;;;1.73;;
64894;SDS011;51588;53.702;10.208;2023-03-31T11:05:30;3.93;;;1.90;;
64894;SDS011;51588;53.702;10.208;2023-03-31T11:08:10;4.47;;;1.90;;
64894;SDS011;51588;53.702;10.208;2023-03-31T11:11:07;5.30;;;2.03;;
64894;SDS011;51588;53.702;10.208;2023-03-31T11:13:55;10.07;;;2.03;;
64894;SDS011;51588;53.702;10.208;2023-03-31T11:16:30;6.33;;;1.90;;
64894;SDS011;51588;53.702;10.208;2023-03-31T11:19:05;4.93;;;1.60;;
64894;SDS011;51588;53.702;10.208;2023-03-31T11:21:46;4.87;;;1.67;;
64894;SDS011;51588;53.702;10.208;2023-03-31T11:24:26;6.27;;;1.90;;
64894;SDS011;51588;53.702;10.208;2023-03-31T11:27:04;9.83;;;1.87;;
64894;SDS011;51588;53.702;10.208;2023-03-31T11:29:44;8.83;;;1.80;;
64894;SDS011;51588;53.702;10.208;2023-03-31T11:32:23;10.63;;;2.00;;
64894;SDS011;51588;53.702;10.208;2023-03-31T11:35:15;5.90;;;2.23;;
64894;SDS011;51588;53.702;10.208;2023-03-31T11:37:53;7.40;;;2.13;;
64894;SDS011;51588;53.702;10.208;2023-03-31T11:40:35;14.83;;;1.90;;
64894;SDS011;51588;53.702;10.208;2023-03-31T11:43:11;5.10;;;1.63;;
64894;SDS011;51588;53.702;10.208;2023-03-31T11:45:46;4.00;;;1.53;;
64894;SDS011;51588;53.702;10.208;2023-03-31T11:48:30;3.17;;;1.30;;
64894;SDS011;51588;53.702;10.208;2023-03-31T11:51:03;3.87;;;1.37;;
64894;SDS011;51588;53.702;10.208;2023-03-31T11:53:33;5.00;;;1.40;;
64894;SDS011;51588;53.702;10.208;2023-03-31T11:56:02;6.03;;;1.73;;
64894;SDS011;51588;53.702;10.208;2023-03-31T11:58:32;3.93;;;1.50;;
64894;SDS011;51588;53.702;10.208;2023-03-31T12:01:04;8.60;;;1.47;;
64894;SDS011;51588;53.702;10.208;2023-03-31T12:03:40;12.20;;;1.77;;
64894;SDS011;51588;53.702;10.208;2023-03-31T12:06:12;6.33;;;1.67;;
64894;SDS011;51588;53.702;10.208;2023-03-31T12:08:45;4.60;;;1.63;;
64894;SDS011;51588;53.702;10.208;2023-03-31T12:11:21;5.10;;;1.60;;
64894;SDS011;51588;53.702;10.208;2023-03-31T12:13:54;3.37;;;1.90;;
64894;SDS011;51588;53.702;10.208;2023-03-31T12:16:30;3.97;;;1.50;;
64894;SDS011;51588;53.702;10.208;2023-03-31T12:19:03;7.00;;;2.00;;
64894;SDS011;51588;53.702;10.208;2023-03-31T12:21:37;3.40;;;1.80;;
64894;SDS011;51588;53.702;10.208;2023-03-31T12:24:08;7.77;;;2.17;;
64894;SDS011;51588;53.702;10.208;2023-03-31T12:26:38;4.83;;;1.97;;
64894;SDS011;51588;53.702;10.208;2023-03-31T12:29:15;7.47;;;2.30;;
64894;SDS011;51588;53.702;10.208;2023-03-31T12:31:51;10.53;;;2.20;;
64894;SDS011;51588;53.702;10.208;2023-03-31T12:34:20;7.10;;;2.47;;
64894;SDS011;51588;53.702;10.208;2023-03-31T12:36:52;11.23;;;2.40;;
64894;SDS011;51588;53.702;10.208;2023-03-31T12:39:32;8.63;;;2.67;;
64894;SDS011;51588;53.702;10.208;2023-03-31T12:42:11;5.97;;;2.40;;
64894;SDS011;51588;53.702;10.208;2023-03-31T12:44:55;6.60;;;2.43;;
64894;SDS011;51588;53.702;10.208;2023-03-31T12:47:32;5.37;;;2.73;;
64894;SDS011;51588;53.702;10.208;2023-03-31T12:50:17;4.20;;;1.97;;
64894;SDS011;51588;53.702;10.208;2023-03-31T12:52:56;4.40;;;2.03;;
64894;SDS011;51588;53.702;10.208;2023-03-31T12:55:31;8.60;;;2.60;;
64894;SDS011;51588;53.702;10.208;2023-03-31T13:01:19;5.87;;;2.60;;
64894;SDS011;51588;53.702;10.208;2023-03-31T13:03:49;6.50;;;2.67;;
64894;SDS011;51588;53.702;10.208;2023-03-31T13:09:43;7.37;;;2.10;;
64894;SDS011;51588;53.702;10.208;2023-03-31T13:12:18;6.43;;;2.33;;
64894;SDS011;51588;53.702;10.208;2023-03-31T13:14:47;12.07;;;2.00;;
64894;SDS011;51588;53.702;10.208;2023-03-31T13:17:22;13.17;;;2.53;;
64894;SDS011;51588;53.702;10.208;2023-03-31T13:19:52;6.07;;;2.10;;
64894;SDS011;51588;53.702;10.208;2023-03-31T13:22:27;11.73;;;2.07;;
64894;SDS011;51588;53.702;10.208;2023-03-31T13:28:08;4.00;;;1.90;;
64894;SDS011;51588;53.702;10.208;2023-03-31T13:30:44;7.13;;;2.20;;
64894;SDS011;51588;53.702;10.208;2023-03-31T13:33:30;6.00;;;1.80;;
64894;SDS011;51588;53.702;10.208;2023-03-31T13:36:09;4.90;;;1.90;;
64894;SDS011;51588;53.702;10.208;2023-03-31T13:38:52;4.77;;;1.97;;
64894;SDS011;51588;53.702;10.208;2023-03-31T13:41:33;4.63;;;1.70;;
64894;SDS011;51588;53.702;10.208;2023-03-31T13:47:23;6.07;;;2.00;;
64894;SDS011;51588;53.702;10.208;2023-03-31T13:50:11;4.07;;;1.77;;
64894;SDS011;51588;53.702;10.208;2023-03-31T13:52:49;3.40;;;1.53;;
64894;SDS011;51588;53.702;10.208;2023-03-31T13:55:35;4.03;;;1.93;;
64894;SDS011;51588;53.702;10.208;2023-03-31T13:58:33;6.50;;;2.00;;
64894;SDS011;51588;53.702;10.208;2023-03-31T14:01:16;3.03;;;1.80;;
64894;SDS011;51588;53.702;10.208;2023-03-31T14:07:01;5.50;;;1.70;;
64894;SDS011;51588;53.702;10.208;2023-03-31T14:09:35;5.43;;;1.90;;
64894;SDS011;51588;53.702;10.208;2023-03-31T14:14:45;12.23;;;2.07;;
64894;SDS011;51588;53.702;10.208;2023-03-31T14:17:13;7.13;;;1.80;;
64894;SDS011;51588;53.702;10.208;2023-03-31T14:19:45;7.60;;;2.23;;
64894;SDS011;51588;53.702;10.208;2023-03-31T14:22:25;4.90;;;1.80;;
64894;SDS011;51588;53.702;10.208;2023-03-31T14:25:06;8.90;;;2.13;;
64894;SDS011;51588;53.702;10.208;2023-03-31T14:27:49;4.83;;;1.97;;
64894;SDS011;51588;53.702;10.208;2023-03-31T14:30:29;4.70;;;2.50;;
64894;SDS011;51588;53.702;10.208;2023-03-31T14:33:09;3.80;;;2.20;;
64894;SDS011;51588;53.702;10.208;2023-03-31T14:35:45;4.43;;;2.20;;
64894;SDS011;51588;53.702;10.208;2023-03-31T14:38:23;4.93;;;2.23;;
64894;SDS011;51588;53.702;10.208;2023-03-31T14:40:54;12.00;;;2.67;;
64894;SDS011;51588;53.702;10.208;2023-03-31T14:43:25;7.60;;;2.10;;
64894;SDS011;51588;53.702;10.208;2023-03-31T14:45:58;4.03;;;2.23;;
64894;SDS011;51588;53.702;10.208;2023-03-31T14:48:26;4.97;;;2.10;;
64894;SDS011;51588;53.702;10.208;2023-03-31T14:50:55;5.13;;;2.40;;
64894;SDS011;51588;53.702;10.208;2023-03-31T14:53:23;6.30;;;2.10;;
64894;SDS011;51588;53.702;10.208;2023-03-31T14:55:54;3.07;;;1.90;;
64894;SDS011;51588;53.702;10.208;2023-03-31T14:58:27;7.70;;;2.00;;
64894;SDS011;51588;53.702;10.208;2023-03-31T15:00:58;3.57;;;3.03;;
64894;SDS011;51588;53.702;10.208;2023-03-31T15:03:27;6.73;;;3.20;;
64894;SDS011;51588;53.702;10.208;2023-03-31T15:05:56;6.33;;;3.87;;
64894;SDS011;51588;53.702;10.208;2023-03-31T15:08:26;5.60;;;3.60;;
64894;SDS011;51588;53.702;10.208;2023-03-31T15:10:57;4.50;;;3.60;;
64894;SDS011;51588;53.702;10.208;2023-03-31T15:13:26;7.40;;;4.57;;
64894;SDS011;51588;53.702;10.208;2023-03-31T15:15:57;31.20;;;10.10;;
64894;SDS011;51588;53.702;10.208;2023-03-31T15:18:24;32.63;;;11.50;;
64894;SDS011;51588;53.702;10.208;2023-03-31T15:20:51;25.53;;;9.40;;
64894;SDS011;51588;53.702;10.208;2023-03-31T15:23:19;60.40;;;20.07;;
64894;SDS011;51588;53.702;10.208;2023-03-31T15:25:48;57.40;;;19.90;;
64894;SDS011;51588;53.702;10.208;2023-03-31T15:28:21;53.63;;;18.10;;